Time;durP1;ratioP1;P1;durP2;ratioP2;P2;SDS_P1;SDS_P2;PMS_P1;PMS_P2;Temp;Humidity;BMP_temperature;BMP_pressure;BME280_temperature;BME280_humidity;BME280_pressure;Samples;Min_cycle;Max_cycle;Signal;HPM_P1;HPM_P2
2021/04/05 00:00:10;;;;;;;30.40;22.27;;;;;;;;;;3576831;40;20029;-50
2021/04/05 00:02:36;;;;;;;32.00;22.98;;;;;;;;;;3576984;40;20060;-52
2021/04/05 00:05:09;;;;;;;32.90;23.35;;;;;;;;;;3577133;40;20033;-53
2021/04/05 00:07:34;;;;;;;39.72;23.20;;;;;;;;;;3577651;40;20056;-53
2021/04/05 00:10:00;;;;;;;35.33;23.25;;;;;;;;;;3577904;40;20037;-48
2021/04/05 00:12:25;;;;;;;38.80;23.42;;;;;;;;;;3577383;40;20364;-49
2021/04/05 00:14:51;;;;;;;35.65;25.05;;;;;;;;;;3576717;40;20126;-53
2021/04/05 00:17:16;;;;;;;35.40;25.20;;;;;;;;;;3576755;40;20122;-53
2021/04/05 00:19:43;;;;;;;42.80;27.23;;;;;;;;;;3576732;40;20037;-54
2021/04/05 00:22:08;;;;;;;46.28;26.98;;;;;;;;;;3576928;40;20567;-49
2021/04/05 00:24:35;;;;;;;38.15;26.15;;;;;;;;;;3578514;40;20039;-52
2021/04/05 00:27:00;;;;;;;39.92;26.38;;;;;;;;;;3581162;40;20036;-50
2021/04/05 00:29:26;;;;;;;39.92;23.33;;;;;;;;;;3579275;40;20033;-51
2021/04/05 00:31:51;;;;;;;37.72;24.55;;;;;;;;;;3578856;40;20121;-54
2021/04/05 00:34:16;;;;;;;37.97;25.75;;;;;;;;;;3579108;40;20052;-49
2021/04/05 00:36:42;;;;;;;33.33;25.23;;;;;;;;;;3579376;40;20051;-49
2021/04/05 00:39:07;;;;;;;40.55;25.02;;;;;;;;;;3578831;40;20033;-47
2021/04/05 00:41:33;;;;;;;39.28;26.92;;;;;;;;;;3576603;40;20511;-49
2021/04/05 00:43:59;;;;;;;44.67;26.98;;;;;;;;;;3578869;40;20121;-50
2021/04/05 00:46:25;;;;;;;40.75;26.75;;;;;;;;;;3577749;40;20029;-53
2021/04/05 00:48:51;;;;;;;37.55;25.23;;;;;;;;;;3576736;40;20033;-49
2021/04/05 00:51:19;;;;;;;37.72;25.40;;;;;;;;;;3577058;40;20065;-49
2021/04/05 00:53:46;;;;;;;41.90;26.33;;;;;;;;;;3577721;40;20049;-50
2021/04/05 00:56:13;;;;;;;38.58;25.33;;;;;;;;;;3575757;40;20053;-51
2021/04/05 00:58:40;;;;;;;37.67;26.15;;;;;;;;;;3577178;40;20041;-49
2021/04/05 01:01:19;;;;;;;43.42;26.52;;;;;;;;;;3576324;40;20035;-51
2021/04/05 01:03:46;;;;;;;41.35;26.35;;;;;;;;;;3577709;40;20033;-51
2021/04/05 01:06:13;;;;;;;34.63;24.38;;;;;;;;;;3576591;40;20045;-51
2021/04/05 01:08:39;;;;;;;42.17;25.48;;;;;;;;;;3577056;40;20029;-50
2021/04/05 01:11:05;;;;;;;34.03;24.88;;;;;;;;;;3577875;40;20040;-50
2021/04/05 01:13:30;;;;;;;36.95;25.95;;;;;;;;;;3580084;40;20037;-48
2021/04/05 01:15:56;;;;;;;47.67;24.85;;;;;;;;;;3578275;40;20029;-50
2021/04/05 01:18:22;;;;;;;37.65;24.27;;;;;;;;;;3579711;40;20033;-50
2021/04/05 01:20:47;;;;;;;37.72;25.02;;;;;;;;;;3584666;40;20037;-52
2021/04/05 01:23:17;;;;;;;51.22;24.65;;;;;;;;;;3579279;40;20033;-51
2021/04/05 01:25:43;;;;;;;36.88;23.67;;;;;;;;;;3578160;40;20029;-50
2021/04/05 01:28:08;;;;;;;37.55;24.02;;;;;;;;;;3578427;40;20044;-53
2021/04/05 01:30:38;;;;;;;43.83;25.55;;;;;;;;;;3577445;40;20125;-54
2021/04/05 01:33:07;;;;;;;38.00;24.80;;;;;;;;;;3579953;40;20048;-49
2021/04/05 01:35:37;;;;;;;41.85;25.90;;;;;;;;;;3578528;40;20052;-50
2021/04/05 01:38:04;;;;;;;43.35;25.77;;;;;;;;;;3578091;40;20033;-47
2021/04/05 01:40:32;;;;;;;46.50;27.40;;;;;;;;;;3578732;40;20037;-50
2021/04/05 01:42:58;;;;;;;47.60;27.88;;;;;;;;;;3578397;40;20033;-48
2021/04/05 01:45:24;;;;;;;42.72;27.70;;;;;;;;;;3578159;40;20056;-51
2021/04/05 01:47:49;;;;;;;50.05;28.73;;;;;;;;;;3578179;40;20041;-51
2021/04/05 01:50:15;;;;;;;46.00;27.38;;;;;;;;;;3578668;40;20134;-51
2021/04/05 01:52:41;;;;;;;44.40;28.50;;;;;;;;;;3579156;40;20033;-49
2021/04/05 01:55:08;;;;;;;50.53;29.95;;;;;;;;;;3577899;40;20066;-53
2021/04/05 01:57:34;;;;;;;42.35;28.33;;;;;;;;;;3578648;40;20032;-49
2021/04/05 01:59:59;;;;;;;45.97;29.05;;;;;;;;;;3577800;40;20514;-49
2021/04/05 02:02:27;;;;;;;45.38;28.25;;;;;;;;;;3578432;40;20029;-48
2021/04/05 02:04:54;;;;;;;46.15;27.10;;;;;;;;;;3577833;40;20041;-52
2021/04/05 02:07:20;;;;;;;47.83;29.08;;;;;;;;;;3578357;40;20056;-52
2021/04/05 02:09:45;;;;;;;38.20;28.10;;;;;;;;;;3578061;40;20250;-52
2021/04/05 02:12:11;;;;;;;43.70;30.33;;;;;;;;;;3577658;40;20037;-50
2021/04/05 02:14:38;;;;;;;43.83;28.70;;;;;;;;;;3578064;40;20129;-54
2021/04/05 02:17:03;;;;;;;41.58;27.88;;;;;;;;;;3580865;40;20118;-53
2021/04/05 02:19:29;;;;;;;42.58;27.38;;;;;;;;;;3577127;40;20304;-50
2021/04/05 02:21:55;;;;;;;52.58;30.83;;;;;;;;;;3578732;40;20028;-51
2021/04/05 02:24:21;;;;;;;43.70;28.65;;;;;;;;;;3578753;40;20037;-50
2021/04/05 02:26:47;;;;;;;48.00;27.90;;;;;;;;;;3578707;40;20280;-51
2021/04/05 02:29:18;;;;;;;49.72;29.55;;;;;;;;;;3577267;40;20029;-52
2021/04/05 02:31:44;;;;;;;43.03;28.73;;;;;;;;;;3577717;40;20426;-50
2021/04/05 02:34:13;;;;;;;45.28;28.48;;;;;;;;;;3577450;40;20383;-49
2021/04/05 02:36:40;;;;;;;44.22;26.55;;;;;;;;;;3578968;40;20041;-51
2021/04/05 02:39:09;;;;;;;43.05;27.80;;;;;;;;;;3577779;40;20149;-50
2021/04/05 02:41:45;;;;;;;36.78;25.98;;;;;;;;;;3578592;40;20036;-52
2021/04/05 02:44:12;;;;;;;40.72;27.85;;;;;;;;;;3578863;40;20056;-49
2021/04/05 02:46:39;;;;;;;39.72;27.92;;;;;;;;;;3577656;40;20044;-50
2021/04/05 02:49:10;;;;;;;36.13;26.33;;;;;;;;;;3578972;40;20171;-53
2021/04/05 02:51:41;;;;;;;41.95;26.80;;;;;;;;;;3578358;40;20040;-53
2021/04/05 02:54:07;;;;;;;36.38;24.38;;;;;;;;;;3577457;40;20119;-49
2021/04/05 02:56:36;;;;;;;44.63;26.83;;;;;;;;;;3577562;40;20067;-51
2021/04/05 02:59:02;;;;;;;42.20;26.98;;;;;;;;;;3577650;40;20115;-54
2021/04/05 03:01:28;;;;;;;41.70;27.20;;;;;;;;;;3577918;40;20045;-55
2021/04/05 03:03:57;;;;;;;44.72;27.70;;;;;;;;;;3578608;40;20041;-54
2021/04/05 03:06:24;;;;;;;39.08;25.73;;;;;;;;;;3578401;40;20030;-49
2021/04/05 03:08:50;;;;;;;49.55;26.40;;;;;;;;;;3578143;40;20033;-51
2021/04/05 03:11:18;;;;;;;37.22;25.30;;;;;;;;;;3577580;40;20260;-53
2021/04/05 03:13:44;;;;;;;47.65;26.77;;;;;;;;;;3578071;40;20033;-47
2021/04/05 03:16:13;;;;;;;37.40;24.90;;;;;;;;;;3577768;40;20033;-48
2021/04/05 03:18:39;;;;;;;37.58;24.88;;;;;;;;;;3577517;40;20108;-49
2021/04/05 03:21:07;;;;;;;41.58;23.92;;;;;;;;;;3576677;40;20505;-48
2021/04/05 03:23:33;;;;;;;33.40;23.17;;;;;;;;;;3578272;40;20280;-46
2021/04/05 03:25:58;;;;;;;39.58;24.48;;;;;;;;;;3578151;40;20032;-48
2021/04/05 03:28:24;;;;;;;39.53;24.75;;;;;;;;;;3579304;40;20044;-47
2021/04/05 03:30:54;;;;;;;44.15;21.30;;;;;;;;;;3578431;40;20274;-50
2021/04/05 03:33:31;;;;;;;42.00;22.95;;;;;;;;;;3577679;40;20119;-49
2021/04/05 03:36:05;;;;;;;37.80;21.88;;;;;;;;;;3578579;40;20052;-52
2021/04/05 03:38:34;;;;;;;35.95;20.33;;;;;;;;;;3578988;40;20061;-50
2021/04/05 03:41:03;;;;;;;32.65;19.33;;;;;;;;;;3577327;40;20044;-49
2021/04/05 03:43:38;;;;;;;35.55;20.65;;;;;;;;;;3577627;40;20048;-51
2021/04/05 03:46:12;;;;;;;32.80;20.05;;;;;;;;;;3577527;40;20056;-49
2021/04/05 03:48:46;;;;;;;31.27;18.73;;;;;;;;;;3577272;40;20265;-50
2021/04/05 03:51:31;;;;;;;30.15;21.55;;;;;;;;;;3579003;40;20053;-50
2021/04/05 03:54:10;;;;;;;30.55;19.67;;;;;;;;;;3576709;40;20037;-51
2021/04/05 03:56:37;;;;;;;31.25;20.38;;;;;;;;;;3578882;40;20361;-52
2021/04/05 03:59:07;;;;;;;35.45;20.95;;;;;;;;;;3578025;40;20074;-47
2021/04/05 04:01:42;;;;;;;34.13;21.60;;;;;;;;;;3577644;40;20445;-47
2021/04/05 04:04:34;;;;;;;36.95;22.58;;;;;;;;;;3577166;40;20029;-47
2021/04/05 04:09:42;;;;;;;28.90;20.27;;;;;;;;;;3577274;40;20044;-48
2021/04/05 04:12:13;;;;;;;34.08;21.45;;;;;;;;;;3577476;40;20264;-48
2021/04/05 04:14:40;;;;;;;42.33;21.13;;;;;;;;;;3576314;40;20033;-50
2021/04/05 04:17:07;;;;;;;26.40;19.65;;;;;;;;;;3577915;40;20043;-48
2021/04/05 04:19:36;;;;;;;41.42;22.13;;;;;;;;;;3577162;40;20048;-49
2021/04/05 04:22:02;;;;;;;34.67;21.65;;;;;;;;;;3577076;40;20300;-50
2021/04/05 04:24:28;;;;;;;37.00;22.13;;;;;;;;;;3577805;40;20033;-50
2021/04/05 04:26:53;;;;;;;35.33;21.48;;;;;;;;;;3577419;40;20052;-51
2021/04/05 04:29:20;;;;;;;32.22;20.42;;;;;;;;;;3577664;40;20025;-50
2021/04/05 04:31:46;;;;;;;39.05;20.17;;;;;;;;;;3577095;40;20025;-51
2021/04/05 04:34:20;;;;;;;28.08;18.30;;;;;;;;;;3578154;40;20055;-54
2021/04/05 04:36:46;;;;;;;34.15;18.90;;;;;;;;;;3577064;40;20356;-51
2021/04/05 04:39:13;;;;;;;34.00;20.50;;;;;;;;;;3577112;40;20052;-53
2021/04/05 04:41:42;;;;;;;38.90;20.15;;;;;;;;;;3576855;40;20053;-54
2021/04/05 04:44:08;;;;;;;30.88;19.08;;;;;;;;;;3578573;40;20610;-49
2021/04/05 04:46:34;;;;;;;28.48;18.85;;;;;;;;;;3578636;40;20044;-50
2021/04/05 04:49:06;;;;;;;33.67;19.08;;;;;;;;;;3579542;40;20033;-52
2021/04/05 04:51:33;;;;;;;29.63;17.77;;;;;;;;;;3578465;40;20041;-50
2021/04/05 04:54:00;;;;;;;34.60;20.15;;;;;;;;;;3578316;40;20633;-49
2021/04/05 04:56:26;;;;;;;33.85;17.13;;;;;;;;;;3580037;40;20047;-47
2021/04/05 04:58:58;;;;;;;33.30;18.80;;;;;;;;;;3580103;40;20154;-52
2021/04/05 05:01:24;;;;;;;30.25;17.48;;;;;;;;;;3579547;40;20088;-49
2021/04/05 05:03:52;;;;;;;28.85;16.92;;;;;;;;;;3578823;40;20382;-50
2021/04/05 05:06:20;;;;;;;29.60;17.27;;;;;;;;;;3578807;40;20045;-54
2021/04/05 05:08:46;;;;;;;36.47;16.88;;;;;;;;;;3579090;40;20122;-52
2021/04/05 05:11:12;;;;;;;30.05;17.08;;;;;;;;;;3577940;40;20041;-49
2021/04/05 05:13:37;;;;;;;28.00;16.38;;;;;;;;;;3578920;40;20343;-53
2021/04/05 05:16:07;;;;;;;24.63;16.52;;;;;;;;;;3578992;40;20037;-51
2021/04/05 05:18:34;;;;;;;27.65;16.02;;;;;;;;;;3579236;40;20123;-51
2021/04/05 05:21:04;;;;;;;28.08;14.45;;;;;;;;;;3578491;40;20025;-49
2021/04/05 05:23:31;;;;;;;23.08;13.60;;;;;;;;;;3578727;40;20031;-49
2021/04/05 05:25:57;;;;;;;25.15;14.98;;;;;;;;;;3579199;40;20041;-51
2021/04/05 05:28:24;;;;;;;23.10;14.27;;;;;;;;;;3579263;40;20032;-51
2021/04/05 05:30:49;;;;;;;23.75;14.93;;;;;;;;;;3578074;40;20048;-49
2021/04/05 05:33:15;;;;;;;21.45;13.25;;;;;;;;;;3580868;40;20029;-52
2021/04/05 05:35:41;;;;;;;32.00;14.35;;;;;;;;;;3578740;40;20555;-51
2021/04/05 05:38:07;;;;;;;20.75;14.00;;;;;;;;;;3578528;40;20040;-49
2021/04/05 05:40:34;;;;;;;21.70;14.10;;;;;;;;;;3578810;40;20048;-50
2021/04/05 05:43:11;;;;;;;26.75;14.13;;;;;;;;;;3577933;40;20043;-50
2021/04/05 05:45:51;;;;;;;25.58;13.40;;;;;;;;;;3578499;40;20339;-47
2021/04/05 05:48:54;;;;;;;28.50;13.10;;;;;;;;;;3578432;40;20041;-48
2021/04/05 05:51:58;;;;;;;23.63;13.50;;;;;;;;;;3578470;40;20071;-50
2021/04/05 05:55:02;;;;;;;25.90;13.25;;;;;;;;;;3548305;40;20035;-48
2021/04/05 05:57:37;;;;;;;26.35;13.25;;;;;;;;;;3532707;40;20405;-49
2021/04/05 06:00:08;;;;;;;27.75;13.30;;;;;;;;;;3572177;40;20118;-51
2021/04/05 06:02:52;;;;;;;;;;;;;;;;;;3579206;40;20029;-48
2021/04/05 06:05:37;;;;;;;26.45;12.82;;;;;;;;;;3578702;40;19981;-51
2021/04/05 06:08:39;;;;;;;17.88;12.07;;;;;;;;;;3578763;40;20044;-53
2021/04/05 06:11:26;;;;;;;26.90;12.27;;;;;;;;;;3577757;40;20041;-48
2021/04/05 06:13:54;;;;;;;21.30;12.23;;;;;;;;;;3579293;40;20029;-51
2021/04/05 06:16:34;;;;;;;20.38;12.13;;;;;;;;;;3578293;40;20106;-51
2021/04/05 06:19:00;;;;;;;22.90;12.70;;;;;;;;;;3578189;40;20045;-50
2021/04/05 06:21:55;;;;;;;18.75;11.25;;;;;;;;;;3585520;40;20810;-53
2021/04/05 06:25:05;;;;;;;20.10;12.40;;;;;;;;;;3578740;40;20376;-55
2021/04/05 06:27:44;;;;;;;25.83;11.80;;;;;;;;;;3578713;40;20041;-51
2021/04/05 06:30:25;;;;;;;22.52;12.23;;;;;;;;;;3578576;40;20037;-53
2021/04/05 06:33:07;;;;;;;30.88;13.32;;;;;;;;;;3578182;40;20067;-54
2021/04/05 06:35:38;;;;;;;25.42;13.30;;;;;;;;;;3580926;40;20060;-48
2021/04/05 06:38:30;;;;;;;24.35;12.88;;;;;;;;;;3577908;40;20167;-51
2021/04/05 06:40:56;;;;;;;;;;;;;;;;;;3579080;40;20073;-53
2021/04/05 06:43:45;;;;;;;24.48;13.63;;;;;;;;;;3580339;40;20017;-49
2021/04/05 06:46:15;;;;;;;21.00;13.15;;;;;;;;;;3579691;40;20041;-48
2021/04/05 06:49:08;;;;;;;25.95;14.27;;;;;;;;;;3578054;40;20040;-52
2021/04/05 06:51:53;;;;;;;22.73;13.93;;;;;;;;;;3579489;40;20043;-53
2021/04/05 06:55:09;;;;;;;30.20;16.13;;;;;;;;;;3577980;40;20076;-54
2021/04/05 06:57:54;;;;;;;24.77;14.70;;;;;;;;;;3567344;40;20261;-55
2021/04/05 07:00:37;;;;;;;30.88;14.73;;;;;;;;;;3578324;40;20037;-51
2021/04/05 07:03:44;;;;;;;24.50;14.95;;;;;;;;;;3578800;40;20043;-54
2021/04/05 07:06:49;;;;;;;21.13;14.88;;;;;;;;;;3577242;40;20088;-50
2021/04/05 07:09:40;;;;;;;23.85;15.77;;;;;;;;;;3577803;40;20048;-53
2021/04/05 07:12:11;;;;;;;24.88;15.85;;;;;;;;;;3577510;40;20044;-50
2021/04/05 07:14:51;;;;;;;25.80;16.42;;;;;;;;;;3577798;40;20434;-52
2021/04/05 07:17:16;;;;;;;34.85;16.08;;;;;;;;;;3578025;40;20055;-52
2021/04/05 07:19:54;;;;;;;29.17;16.95;;;;;;;;;;3576775;40;20382;-48
2021/04/05 07:22:28;;;;;;;22.33;16.17;;;;;;;;;;3577770;40;20037;-51
2021/04/05 07:25:32;;;;;;;24.95;16.42;;;;;;;;;;3578309;40;20365;-52
2021/04/05 07:28:12;;;;;;;23.15;16.25;;;;;;;;;;3573290;40;20044;-53
2021/04/05 07:30:45;;;;;;;27.15;18.65;;;;;;;;;;3577727;40;20060;-51
2021/04/05 07:33:31;;;;;;;28.73;16.67;;;;;;;;;;3577656;40;20055;-51
2021/04/05 07:36:35;;;;;;;29.85;17.02;;;;;;;;;;3578791;40;20045;-52
2021/04/05 07:39:21;;;;;;;27.17;19.13;;;;;;;;;;3562949;40;20073;-51
2021/04/05 07:42:06;;;;;;;25.20;17.38;;;;;;;;;;3576516;40;20118;-53
2021/04/05 07:45:01;;;;;;;31.02;20.63;;;;;;;;;;3577821;40;20055;-52
2021/04/05 07:48:05;;;;;;;28.58;18.15;;;;;;;;;;3574557;40;20032;-52
2021/04/05 07:50:31;;;;;;;23.00;17.58;;;;;;;;;;3577445;40;20037;-53
2021/04/05 07:53:11;;;;;;;30.88;22.10;;;;;;;;;;3578029;40;20550;-51
2021/04/05 07:55:39;;;;;;;36.08;19.77;;;;;;;;;;3577603;40;20032;-51
2021/04/05 07:58:26;;;;;;;35.63;18.45;;;;;;;;;;3576949;40;20051;-49
2021/04/05 08:01:08;;;;;;;22.98;17.85;;;;;;;;;;3577721;40;20025;-49
2021/04/05 08:04:02;;;;;;;32.90;16.75;;;;;;;;;;3578482;40;20035;-49
2021/04/05 08:06:35;;;;;;;29.02;17.48;;;;;;;;;;3579756;40;20390;-53
2021/04/05 08:09:06;;;;;;;24.10;16.65;;;;;;;;;;3577128;40;20025;-53
2021/04/05 08:12:09;;;;;;;27.42;17.95;;;;;;;;;;3577533;40;20439;-52
2021/04/05 08:14:49;;;;;;;24.35;16.10;;;;;;;;;;3577316;40;20036;-50
2021/04/05 08:17:33;;;;;;;27.77;18.17;;;;;;;;;;3577165;40;20044;-51
2021/04/05 08:20:11;;;;;;;30.65;17.83;;;;;;;;;;3578939;40;20250;-53
2021/04/05 08:22:59;;;;;;;30.23;17.70;;;;;;;;;;3577877;40;20036;-52
2021/04/05 08:26:02;;;;;;;26.35;17.73;;;;;;;;;;3579386;40;20048;-52
2021/04/05 08:28:59;;;;;;;26.50;19.10;;;;;;;;;;3578564;40;20041;-51
2021/04/05 08:31:35;;;;;;;29.95;18.58;;;;;;;;;;3578998;40;20048;-49
2021/04/05 08:34:41;;;;;;;29.13;16.92;;;;;;;;;;3578535;40;20084;-50
2021/04/05 08:37:09;;;;;;;25.48;16.98;;;;;;;;;;3574024;40;20037;-53
2021/04/05 08:39:49;;;;;;;29.33;17.90;;;;;;;;;;3584402;40;20033;-53
2021/04/05 08:42:38;;;;;;;28.05;17.05;;;;;;;;;;3577831;40;20037;-51
2021/04/05 08:45:20;;;;;;;29.88;18.00;;;;;;;;;;3578950;40;20033;-53
2021/04/05 08:48:03;;;;;;;30.70;17.17;;;;;;;;;;3578694;40;20376;-53
2021/04/05 08:50:33;;;;;;;27.88;18.50;;;;;;;;;;3578726;40;20127;-53
2021/04/05 08:53:02;;;;;;;25.00;17.67;;;;;;;;;;3578377;40;20033;-53
2021/04/05 08:55:30;;;;;;;30.35;17.90;;;;;;;;;;3581077;40;20306;-50
2021/04/05 08:58:27;;;;;;;26.95;16.90;;;;;;;;;;3579442;40;20037;-53
2021/04/05 09:00:57;;;;;;;25.80;17.52;;;;;;;;;;3578266;40;20059;-51
2021/04/05 09:03:26;;;;;;;30.17;18.70;;;;;;;;;;3578778;40;20037;-48
2021/04/05 09:05:52;;;;;;;21.95;17.35;;;;;;;;;;3578472;40;20049;-51
2021/04/05 09:08:21;;;;;;;26.58;17.23;;;;;;;;;;3579276;40;20060;-53
2021/04/05 09:10:53;;;;;;;23.73;17.63;;;;;;;;;;3578499;40;20414;-51
2021/04/05 09:13:22;;;;;;;22.88;16.98;;;;;;;;;;3578354;40;20126;-51
2021/04/05 09:16:49;;;;;;;23.33;16.95;;;;;;;;;;3578069;40;20187;-52
2021/04/05 09:19:21;;;;;;;28.35;17.73;;;;;;;;;;3543884;40;20053;-50
2021/04/05 09:22:17;;;;;;;31.00;18.05;;;;;;;;;;3547800;40;20030;-52
2021/04/05 09:24:57;;;;;;;39.53;17.75;;;;;;;;;;3570062;40;20041;-55
2021/04/05 09:27:53;;;;;;;25.10;16.10;;;;;;;;;;3579079;40;20033;-52
2021/04/05 09:30:43;;;;;;;27.00;17.70;;;;;;;;;;3577884;40;20049;-53
2021/04/05 09:33:30;;;;;;;35.70;18.33;;;;;;;;;;3578483;40;20127;-49
2021/04/05 09:36:14;;;;;;;25.45;18.60;;;;;;;;;;3578017;40;20056;-52
2021/04/05 09:39:13;;;;;;;30.05;18.35;;;;;;;;;;3578827;40;20037;-54
2021/04/05 09:42:08;;;;;;;34.83;18.05;;;;;;;;;;3578142;40;20373;-53
2021/04/05 09:45:01;;;;;;;31.58;18.35;;;;;;;;;;3567030;40;20052;-54
2021/04/05 09:47:45;;;;;;;35.45;18.40;;;;;;;;;;3579680;40;20037;-54
2021/04/05 09:50:16;;;;;;;30.55;17.55;;;;;;;;;;3584395;40;20043;-51
2021/04/05 09:52:44;;;;;;;30.33;18.63;;;;;;;;;;3577974;40;20049;-52
2021/04/05 09:55:12;;;;;;;24.20;15.77;;;;;;;;;;3578858;40;20087;-50
2021/04/05 09:57:43;;;;;;;25.38;17.45;;;;;;;;;;3579316;40;20036;-51
2021/04/05 10:00:13;;;;;;;25.00;18.75;;;;;;;;;;3578209;40;20045;-51
2021/04/05 10:02:52;;;;;;;25.17;17.27;;;;;;;;;;3578006;40;20045;-51
2021/04/05 10:05:20;;;;;;;27.13;17.30;;;;;;;;;;3578493;40;20065;-51
2021/04/05 10:07:48;;;;;;;25.20;17.23;;;;;;;;;;3579980;40;20032;-50
2021/04/05 10:10:15;;;;;;;28.13;17.75;;;;;;;;;;3578338;40;20044;-52
2021/04/05 10:12:43;;;;;;;27.85;17.73;;;;;;;;;;3577990;40;20029;-50
2021/04/05 10:15:13;;;;;;;24.95;17.50;;;;;;;;;;3577976;40;20030;-51
2021/04/05 10:17:45;;;;;;;29.80;17.90;;;;;;;;;;3578616;40;20401;-50
2021/04/05 10:20:11;;;;;;;30.58;19.23;;;;;;;;;;3577985;40;20059;-52
2021/04/05 10:22:43;;;;;;;23.90;16.80;;;;;;;;;;3578127;40;20484;-51
2021/04/05 10:25:09;;;;;;;21.75;16.02;;;;;;;;;;3577816;40;20037;-52
2021/04/05 10:27:36;;;;;;;27.05;16.98;;;;;;;;;;3578348;40;20031;-52
2021/04/05 10:30:04;;;;;;;25.65;17.63;;;;;;;;;;3577759;40;20060;-51
2021/04/05 10:32:30;;;;;;;25.02;17.90;;;;;;;;;;3578276;40;20039;-52
2021/04/05 10:35:00;;;;;;;26.75;16.75;;;;;;;;;;3578562;40;20045;-51
2021/04/05 10:37:32;;;;;;;25.02;17.10;;;;;;;;;;3578844;40;20041;-52
2021/04/05 10:39:59;;;;;;;26.55;17.65;;;;;;;;;;3583540;40;20041;-53
2021/04/05 10:42:30;;;;;;;23.55;16.58;;;;;;;;;;3578368;40;20040;-49
2021/04/05 10:45:06;;;;;;;27.63;17.10;;;;;;;;;;3577811;40;20060;-50
2021/04/05 10:47:40;;;;;;;25.75;17.40;;;;;;;;;;3578123;40;20156;-48
2021/04/05 10:50:07;;;;;;;28.33;17.65;;;;;;;;;;3577794;40;20029;-52
2021/04/05 10:52:38;;;;;;;28.17;17.63;;;;;;;;;;3578300;40;20469;-53
2021/04/05 10:55:15;;;;;;;26.40;16.98;;;;;;;;;;3578214;40;20033;-53
2021/04/05 10:57:44;;;;;;;31.75;17.05;;;;;;;;;;3577070;40;20367;-52
2021/04/05 11:00:16;;;;;;;29.08;17.85;;;;;;;;;;3577331;40;20035;-53
2021/04/05 11:02:48;;;;;;;20.33;15.65;;;;;;;;;;3576071;40;20287;-51
2021/04/05 11:05:21;;;;;;;24.52;17.02;;;;;;;;;;3577497;40;20357;-50
2021/04/05 11:07:52;;;;;;;25.35;16.75;;;;;;;;;;3578256;40;20037;-51
2021/04/05 11:10:20;;;;;;;29.77;17.42;;;;;;;;;;3578315;40;20838;-53
2021/04/05 11:12:52;;;;;;;24.95;16.85;;;;;;;;;;3579603;40;20300;-53
2021/04/05 11:15:18;;;;;;;;;;;;;;;;;;3579767;40;20037;-55
2021/04/05 11:17:47;;;;;;;21.92;16.65;;;;;;;;;;3577929;40;19965;-51
2021/04/05 11:20:14;;;;;;;25.48;16.73;;;;;;;;;;3577359;40;20049;-55
2021/04/05 11:22:41;;;;;;;29.90;17.25;;;;;;;;;;3577340;40;20045;-53
2021/04/05 11:25:12;;;;;;;24.98;17.10;;;;;;;;;;3577678;40;20036;-54
2021/04/05 11:27:41;;;;;;;;;;;;;;;;;;3578328;40;20119;-51
2021/04/05 11:30:08;;;;;;;28.00;19.20;;;;;;;;;;3577726;40;20172;-53
2021/04/05 11:32:36;;;;;;;32.63;17.98;;;;;;;;;;3579697;40;20033;-51
2021/04/05 11:35:05;;;;;;;27.52;17.45;;;;;;;;;;3576952;40;20071;-54
2021/04/05 11:37:36;;;;;;;23.88;15.63;;;;;;;;;;3580053;40;20029;-51
2021/04/05 11:40:10;;;;;;;32.28;16.40;;;;;;;;;;3576958;40;20403;-50
2021/04/05 11:42:43;;;;;;;36.03;17.48;;;;;;;;;;3577586;40;20063;-54
2021/04/05 11:45:11;;;;;;;22.20;16.90;;;;;;;;;;3576240;40;20370;-53
2021/04/05 11:47:40;;;;;;;24.63;15.00;;;;;;;;;;3577872;40;20041;-55
2021/04/05 11:50:15;;;;;;;29.65;17.63;;;;;;;;;;3577221;40;20037;-55
2021/04/05 11:52:58;;;;;;;28.60;16.90;;;;;;;;;;3576809;40;20033;-53
2021/04/05 11:55:29;;;;;;;30.65;16.70;;;;;;;;;;3577914;40;20034;-52
2021/04/05 11:58:08;;;;;;;21.73;16.45;;;;;;;;;;3577981;40;20043;-52
2021/04/05 12:00:39;;;;;;;20.08;14.13;;;;;;;;;;3578112;40;20040;-49
2021/04/05 12:03:36;;;;;;;20.27;14.98;;;;;;;;;;3579264;40;20141;-53
2021/04/05 12:06:06;;;;;;;21.35;13.23;;;;;;;;;;3578626;40;20033;-53
2021/04/05 12:08:40;;;;;;;14.70;7.40;;;;;;;;;;3579579;40;20413;-52
2021/04/05 12:11:07;;;;;;;8.88;5.68;;;;;;;;;;3577565;40;20033;-48
2021/04/05 12:13:41;;;;;;;9.48;6.10;;;;;;;;;;3577334;40;20606;-55
2021/04/05 12:16:08;;;;;;;7.10;5.15;;;;;;;;;;3577455;40;20036;-52
2021/04/05 12:18:34;;;;;;;6.70;4.45;;;;;;;;;;3579604;40;20040;-54
2021/04/05 12:21:09;;;;;;;5.22;4.28;;;;;;;;;;3577754;40;20034;-55
2021/04/05 12:23:35;;;;;;;9.63;5.53;;;;;;;;;;3578300;40;20380;-55
2021/04/05 12:26:01;;;;;;;6.72;4.13;;;;;;;;;;3577860;40;20033;-54
2021/04/05 12:28:43;;;;;;;11.07;6.90;;;;;;;;;;3577648;40;20040;-50
2021/04/05 12:31:09;;;;;;;9.52;5.45;;;;;;;;;;3577688;40;20029;-55
2021/04/05 12:33:37;;;;;;;9.43;5.05;;;;;;;;;;3576875;40;20028;-56
2021/04/05 12:36:04;;;;;;;5.35;3.30;;;;;;;;;;3576606;40;20134;-56
2021/04/05 12:38:36;;;;;;;4.95;3.50;;;;;;;;;;3577235;40;20037;-55
2021/04/05 12:41:04;;;;;;;7.18;3.40;;;;;;;;;;3577903;40;20196;-50
2021/04/05 12:43:31;;;;;;;4.70;2.40;;;;;;;;;;3576462;40;20048;-51
2021/04/05 12:45:59;;;;;;;4.07;2.05;;;;;;;;;;3576049;40;20878;-52
2021/04/05 12:48:34;;;;;;;3.10;1.52;;;;;;;;;;3576358;40;20069;-52
2021/04/05 12:51:06;;;;;;;2.42;1.33;;;;;;;;;;3576465;40;20068;-56
2021/04/05 12:53:34;;;;;;;1.70;0.93;;;;;;;;;;3574539;40;20164;-51
2021/04/05 12:56:00;;;;;;;2.13;1.08;;;;;;;;;;3575202;40;20118;-53
2021/04/05 12:58:26;;;;;;;3.15;1.10;;;;;;;;;;3574158;40;20037;-56
2021/04/05 13:00:52;;;;;;;2.40;1.20;;;;;;;;;;3575521;40;20678;-54
2021/04/05 13:03:33;;;;;;;2.10;1.10;;;;;;;;;;3575638;40;20094;-52
2021/04/05 13:06:05;;;;;;;;;;;;;;;;;;3577320;40;20041;-50
2021/04/05 13:08:47;;;;;;;2.30;0.98;;;;;;;;;;3576575;40;19989;-51
2021/04/05 13:11:12;;;;;;;3.08;1.00;;;;;;;;;;3576461;40;20044;-51
2021/04/05 13:13:48;;;;;;;2.10;0.93;;;;;;;;;;3577055;40;20044;-51
2021/04/05 13:16:24;;;;;;;4.40;1.00;;;;;;;;;;3576684;40;20041;-54
2021/04/05 13:18:53;;;;;;;3.20;1.15;;;;;;;;;;3577029;40;20490;-52
2021/04/05 13:21:20;;;;;;;3.53;1.13;;;;;;;;;;3577111;40;20625;-53
2021/04/05 13:23:50;;;;;;;2.60;0.90;;;;;;;;;;3577416;40;20053;-47
2021/04/05 13:26:25;;;;;;;2.75;0.95;;;;;;;;;;3577600;40;20053;-52
2021/04/05 13:28:53;;;;;;;3.38;0.85;;;;;;;;;;3576585;40;20073;-54
2021/04/05 13:31:22;;;;;;;1.25;0.60;;;;;;;;;;3575958;40;20059;-53
2021/04/05 13:33:49;;;;;;;1.88;0.75;;;;;;;;;;3576211;40;20048;-53
2021/04/05 13:36:16;;;;;;;5.57;1.17;;;;;;;;;;3576667;40;20041;-53
2021/04/05 13:38:42;;;;;;;2.58;0.93;;;;;;;;;;3576649;40;20065;-52
2021/04/05 13:41:19;;;;;;;2.97;0.95;;;;;;;;;;3577787;40;20064;-52
2021/04/05 13:43:49;;;;;;;2.35;0.90;;;;;;;;;;3576650;40;20060;-50
2021/04/05 13:46:16;;;;;;;5.28;1.02;;;;;;;;;;3576572;40;20149;-50
2021/04/05 13:48:46;;;;;;;3.72;1.20;;;;;;;;;;3576787;40;20102;-52
2021/04/05 13:51:15;;;;;;;5.82;1.35;;;;;;;;;;3577140;40;20398;-53
2021/04/05 13:53:41;;;;;;;3.10;1.30;;;;;;;;;;3576754;40;20045;-51
2021/04/05 13:56:10;;;;;;;2.75;1.20;;;;;;;;;;3576756;40;20126;-53
2021/04/05 13:58:50;;;;;;;4.30;1.40;;;;;;;;;;3577007;40;20072;-54
2021/04/05 14:01:19;;;;;;;4.30;1.45;;;;;;;;;;3577573;40;20045;-50
2021/04/05 14:03:49;;;;;;;2.35;1.30;;;;;;;;;;3576796;40;20080;-50
2021/04/05 14:06:21;;;;;;;4.53;1.80;;;;;;;;;;3576757;40;20041;-49
2021/04/05 14:08:49;;;;;;;8.00;1.73;;;;;;;;;;3572834;40;20092;-53
2021/04/05 14:11:42;;;;;;;4.25;1.73;;;;;;;;;;3573755;40;20044;-49
2021/04/05 14:14:07;;;;;;;5.28;1.73;;;;;;;;;;3583830;40;20036;-49
2021/04/05 14:16:45;;;;;;;5.13;1.63;;;;;;;;;;3584761;40;20125;-50
2021/04/05 14:19:29;;;;;;;2.58;0.95;;;;;;;;;;3584388;40;20362;-50
2021/04/05 14:22:04;;;;;;;2.35;1.13;;;;;;;;;;3584788;40;20041;-48
2021/04/05 14:24:34;;;;;;;4.63;1.40;;;;;;;;;;3584522;40;20069;-50
2021/04/05 14:27:03;;;;;;;2.65;0.93;;;;;;;;;;3585288;40;20059;-53
2021/04/05 14:29:34;;;;;;;4.75;1.52;;;;;;;;;;3584206;40;20038;-53
2021/04/05 14:32:04;;;;;;;2.83;0.80;;;;;;;;;;3584836;40;20043;-52
2021/04/05 14:34:33;;;;;;;2.50;1.05;;;;;;;;;;3584316;40;20055;-52
2021/04/05 14:37:09;;;;;;;2.97;0.98;;;;;;;;;;3584435;40;20668;-51
2021/04/05 14:39:37;;;;;;;2.88;1.27;;;;;;;;;;3582639;40;20072;-55
2021/04/05 14:42:19;;;;;;;3.35;1.40;;;;;;;;;;3584383;40;20701;-52
2021/04/05 14:44:49;;;;;;;3.90;1.52;;;;;;;;;;3583274;40;20326;-52
2021/04/05 14:47:18;;;;;;;2.43;0.87;;;;;;;;;;3583249;40;20478;-54
2021/04/05 14:49:52;;;;;;;3.50;1.05;;;;;;;;;;3582924;40;20279;-54
2021/04/05 14:52:27;;;;;;;3.92;1.27;;;;;;;;;;3584831;40;20033;-54
2021/04/05 14:54:55;;;;;;;3.25;1.10;;;;;;;;;;3584896;40;20036;-53
2021/04/05 14:57:24;;;;;;;4.07;1.30;;;;;;;;;;3583931;40;20043;-54
2021/04/05 14:59:52;;;;;;;4.03;1.30;;;;;;;;;;3584701;40;20040;-54